Airfield :
LOGIN :

Register | Disclaimer

   EN    FR    IT 

 










Legend :    VFR   Marginal VFR   IFR   Intensive IFR   Very Intensive IFR
Visi :
Ceiling :
>= 8 km
>= 3000ft
5 to 8 km
1000 to 3000 ft
1500m to 5 km
500 to 1000 ft
800 to 1500m
200 to 500 ft
< 800m
< 200 ft
Symbols :   Thunderstorms  Fog  Heavy snow  Heavy precipitations  Wind > 20 kt
SIGMETs :     Misc.  Thunderstorms  Icing  Turbulence  Mountain Waves  Volcanic Ashes






- Airport Elevation : 642 ft
- IATA code : RVN


EFRO - Rovaniemi

CURRENT METAR :
  • 192150Z AUTO 07006KT 9999 BKN014 16/15 Q1014

EXPIRED METARs :
  • 192120Z AUTO 07005KT 9999 SCT015 16/15 Q1014
  • 192050Z AUTO 08006KT 9999 -SHRA OVC015 17/15 Q1014
  • 192020Z AUTO 09007KT 9999 OVC018 17/14 Q1014
  • 191950Z AUTO 08007KT 9999 -SHRA OVC020 17/14 Q1014
  • 191920Z AUTO 08006KT 9999 OVC020 17/14 Q1014
  • 191850Z AUTO 06006KT 9999 OVC023 17/14 Q1013
  • 191820Z AUTO 05007KT 9999 BKN029 17/14 Q1013
  • 191750Z AUTO 06008KT 9999 BKN031 17/14 Q1013
  • 191720Z AUTO 07007KT 9999 -SHRA BKN028 BKN039 17/14 Q1013

TAF TAF EFRO
Valid from the 19 at 21:00 until the 20 at 21:00 UTC


192034Z 1921/2021 08007KT 9999 BKN016
TEMPO 1921/1923 BKN012



MET'MAP, your aeronautical weather chart ! - Copyright ORBIFLY December 2007 - Disclaimer

ORBIFLY MET'MAP TEAM :

Programming & Development : Alexandra Zaïnal
Original concept : Baudouin d'Aumeries
Technical & hardware support : Manuel Goepfert
Assistance : Marc-Olivier Méhu




SOURCES & CREDITS :

   NOAA